| time (UTC) | temp F | wind direction | speed MPH | gust MPH | rain 1hr in | rain 24hr in | rain mn in | humidity % | barometer mb |
| 20260507090010 | 53 | 239 | 4.0 | 9.0 | 0.00 | 0.39 | 0.01 | 84 | 1011.9 |
| 20260507084506 | 52 | 208 | 3.0 | 11.0 | 0.00 | 0.39 | 0.01 | 86 | 1011.8 |
| 20260507083007 | 52 | 205 | 3.0 | 9.0 | 0.00 | 0.39 | 0.01 | 88 | 1011.7 |
| 20260507081512 | 51 | 226 | 3.0 | 7.0 | 0.00 | 0.39 | 0.01 | 88 | 1011.7 |
| 20260507080005 | 51 | 227 | 4.0 | 10.0 | 0.00 | 0.39 | 0.01 | 88 | 1011.7 |
| 20260507074515 | 50 | 217 | 5.0 | 10.0 | 0.00 | 0.39 | 0.01 | 86 | 1011.5 |
| 20260507073002 | 51 | 232 | 5.0 | 11.0 | 0.00 | 0.39 | 0.01 | 86 | 1011.3 |
| 20260507071501 | 51 | 242 | 6.0 | 10.0 | 0.00 | 0.39 | 0.01 | 85 | 1011.2 |
| 20260507070108 | 51 | 205 | 5.0 | 9.0 | 0.00 | 0.39 | 0.01 | 86 | 1011.0 |
| 20260507064600 | 51 | 229 | 4.0 | 9.0 | 0.00 | 0.39 | 0.01 | 87 | 1011.1 |
| 20260507063059 | 50 | 228 | 3.0 | 7.0 | 0.00 | 0.39 | 0.01 | 89 | 1010.9 |
| 20260507061557 | 50 | 222 | 5.0 | 8.0 | 0.00 | 0.39 | 0.01 | 89 | 1010.8 |
| 20260507060105 | 49 | 236 | 4.0 | 10.0 | 0.00 | 0.39 | 0.01 | 89 | 1010.7 |
| 20260507054556 | 49 | 236 | 3.0 | 7.0 | 0.00 | 0.39 | 0.01 | 90 | 1010.6 |
| 20260507053053 | 50 | 210 | 2.0 | 5.0 | 0.00 | 0.39 | 0.01 | 90 | 1010.4 |
| 20260507051548 | 49 | 248 | 1.0 | 7.0 | 0.00 | 0.39 | 0.01 | 90 | 1010.3 |
| 20260507050045 | 49 | 238 | 3.0 | 8.0 | 0.00 | 0.39 | 0.01 | 90 | 1010.2 |
| 20260507044544 | 49 | 269 | 2.0 | 9.0 | 0.00 | 0.39 | 0.01 | 90 | 1009.9 |
| 20260507043040 | 50 | 235 | 3.0 | 7.0 | 0.00 | 0.39 | 0.01 | 91 | 1009.8 |
| 20260507041538 | 50 | 196 | 3.0 | 6.0 | 0.00 | 0.39 | 0.01 | 91 | 1009.5 |
| 20260507040038 | 50 | 230 | 2.0 | 5.0 | 0.00 | 0.39 | 0.01 | 91 | 1009.3 |
| 20260507034551 | 50 | 240 | 3.0 | 8.0 | 0.00 | 0.39 | 0.01 | 91 | 1009.3 |
| 20260507033038 | 50 | 194 | 3.0 | 7.0 | 0.00 | 0.39 | 0.01 | 91 | 1009.2 |
| 20260507032159 | 51 | 203 | 3.0 | 7.0 | 0.00 | 0.39 | 0.01 | 91 | 1009.8 |
| 20260507031530 | 50 | 208 | 3.0 | 6.0 | 0.00 | 0.39 | 0.01 | 91 | 1009.1 |
| 20260507030029 | 51 | 199 | 3.0 | 6.0 | 0.00 | 0.39 | 0.01 | 91 | 1009.0 |
| 20260507024546 | 51 | 219 | 1.0 | 4.0 | 0.00 | 0.39 | 0.01 | 91 | 1008.8 |
| 20260507023027 | 51 | 210 | 2.0 | 5.0 | 0.00 | 0.39 | 0.01 | 91 | 1008.9 |
| 20260507022142 | 51 | 203 | 2.0 | 4.0 | 0.00 | 0.39 | 0.01 | 91 | 1009.7 |
| 20260507021525 | 51 | 222 | 2.0 | 7.0 | 0.00 | 0.39 | 0.01 | 91 | 1008.8 |
| 20260507020026 | 51 | 217 | 1.0 | 6.0 | 0.01 | 0.39 | 0.01 | 91 | 1008.8 |
| 20260507014535 | 51 | 239 | 1.0 | 4.0 | 0.01 | 0.39 | 0.01 | 91 | 1008.7 |
| 20260507013024 | 51 | 227 | 1.0 | 4.0 | 0.01 | 0.39 | 0.01 | 91 | 1008.6 |
| 20260507012125 | 52 | 225 | 1.0 | 2.0 | 0.01 | 0.39 | 0.01 | 91 | 1009.5 |
| 20260507011536 | 51 | 218 | 0.0 | 2.0 | 0.01 | 0.39 | 0.01 | 91 | 1008.7 |
| 20260507010021 | 51 | 218 | 0.0 | 5.0 | 0.00 | 0.39 | 0.00 | 91 | 1008.6 |
| 20260507004520 | 51 | 229 | 1.0 | 4.0 | 0.00 | 0.39 | 0.00 | 91 | 1008.5 |
| 20260507003021 | 51 | 231 | 2.0 | 5.0 | 0.00 | 0.39 | 0.00 | 91 | 1008.5 |
| 20260507002211 | 52 | 225 | 2.0 | 3.0 | 0.00 | 0.39 | 0.00 | 91 | 1009.2 |
| 20260507001518 | 52 | 229 | 2.0 | 6.0 | 0.00 | 0.39 | 0.00 | 91 | 1008.5 |
| 20260507000017 | 52 | 252 | 2.0 | 5.0 | 0.00 | 0.39 | 0.00 | 91 | 1008.5 |
| 20260506234516 | 52 | 224 | 1.0 | 4.0 | 0.00 | 0.39 | 0.00 | 92 | 1008.4 |
| 20260506233015 | 52 | 223 | 2.0 | 6.0 | 0.00 | 0.39 | 0.00 | 92 | 1008.4 |
| 20260506232241 | 53 | 225 | 2.0 | 4.0 | 0.00 | 0.39 | 0.00 | 92 | 1009.0 |
| 20260506231515 | 52 | 225 | 1.0 | 4.0 | 0.00 | 0.39 | 0.00 | 92 | 1008.3 |
| 20260506230015 | 52 | 208 | 0.0 | 3.0 | 0.00 | 0.39 | 0.00 | 92 | 1008.1 |
| 20260506224515 | 53 | 208 | 1.0 | 4.0 | 0.00 | 0.39 | 0.00 | 91 | 1008.1 |
| 20260506223011 | 52 | 193 | 0.0 | 3.0 | 0.00 | 0.39 | 0.00 | 91 | 1008.1 |
| 20260506222202 | 53 | 0.0 | 1.0 | 0.01 | 0.39 | 0.00 | 91 | 1008.7 | |
| 20260506221510 | 53 | 193 | 0.0 | 2.0 | 0.00 | 0.39 | 0.00 | 91 | 1008.1 |
| 20260506220009 | 53 | 193 | 0.0 | 3.0 | 0.02 | 0.39 | 0.00 | 91 | 1008.0 |
| 20260506214515 | 52 | 193 | 0.0 | 2.0 | 0.02 | 0.39 | 0.39 | 91 | 1007.9 |
| 20260506213009 | 53 | 193 | 0.0 | 2.0 | 0.02 | 0.39 | 0.39 | 91 | 1007.8 |
| 20260506212203 | 53 | 0.0 | 0.0 | 0.02 | 0.38 | 0.38 | 91 | 1007.8 | |
| 20260506211506 | 53 | 92 | 0.0 | 0.0 | 0.02 | 0.39 | 0.39 | 91 | 1007.2 |
| 20260506210006 | 53 | 89 | 1.0 | 4.0 | 0.06 | 0.37 | 0.37 | 90 | 1007.0 |
| 20260506204505 | 53 | 215 | 0.0 | 0.0 | 0.11 | 0.37 | 0.37 | 90 | 1007.5 |
| 20260506203011 | 53 | 215 | 0.0 | 0.0 | 0.15 | 0.36 | 0.36 | 90 | 1007.7 |
| 20260506202200 | 54 | 0.0 | 0.0 | 0.19 | 0.35 | 0.35 | 90 | 1008.2 | |
| 20260506201504 | 53 | 214 | 0.0 | 1.0 | 0.20 | 0.36 | 0.36 | 90 | 1007.7 |
| 20260506200005 | 53 | 215 | 1.0 | 3.0 | 0.17 | 0.31 | 0.31 | 90 | 1007.8 |
| 20260506194503 | 53 | 211 | 1.0 | 5.0 | 0.12 | 0.26 | 0.26 | 89 | 1007.5 |
| 20260506193059 | 54 | 287 | 0.0 | 3.0 | 0.08 | 0.22 | 0.22 | 89 | 1006.9 |
| 20260506192400 | 54 | 293 | 1.0 | 3.0 | 0.02 | 0.17 | 0.17 | 89 | 1006.9 |
| 20260506191600 | 54 | 267 | 1.0 | 7.0 | 0.03 | 0.17 | 0.17 | 89 | 1006.6 |
| 20260506190059 | 54 | 224 | 3.0 | 6.0 | 0.00 | 0.14 | 0.14 | 88 | 1006.0 |
| 20260506184657 | 54 | 60 | 0.0 | 2.0 | 0.00 | 0.15 | 0.14 | 88 | 1005.6 |
| 20260506183100 | 54 | 44 | 0.0 | 3.0 | 0.01 | 0.15 | 0.14 | 88 | 1005.3 |
| 20260506182332 | 55 | 45 | 3.0 | 4.0 | 0.07 | 0.15 | 0.14 | 87 | 1005.4 |
| 20260506181556 | 54 | 42 | 1.0 | 4.0 | 0.05 | 0.15 | 0.14 | 88 | 1004.9 |
| 20260506180055 | 54 | 49 | 2.0 | 4.0 | 0.14 | 0.15 | 0.14 | 87 | 1004.9 |
| 20260506174601 | 54 | 43 | 2.0 | 5.0 | 0.14 | 1.02 | 0.14 | 85 | 1005.0 |
| 20260506173125 | 55 | 288 | 2.0 | 8.0 | 0.13 | 1.01 | 0.13 | 82 | 1005.7 |
| 20260506172121 | 57 | 338 | 4.0 | 10.0 | 0.11 | 0.57 | 0.11 | 78 | 1005.4 |
| 20260506172058 | 60 | 293 | 6.0 | 10.0 | 0.03 | 0.91 | 0.03 | 73 | 1005.4 |
| 20260506171553 | 58 | 253 | 4.0 | 12.0 | 0.09 | 0.96 | 0.09 | 77 | 1005.1 |
| 20260506170052 | 63 | 310 | 0.0 | 2.0 | 0.00 | 0.87 | 0.00 | 70 | 1004.3 |
| 20260506164552 | 64 | 315 | 0.0 | 4.0 | 0.00 | 0.87 | 0.00 | 66 | 1003.9 |
| 20260506163054 | 64 | 275 | 1.0 | 3.0 | 0.00 | 0.87 | 0.00 | 65 | 1003.8 |
| 20260506162457 | 66 | 293 | 1.0 | 2.0 | 0.00 | 0.87 | 0.00 | 65 | 1004.7 |
| 20260506161550 | 65 | 286 | 0.0 | 2.0 | 0.00 | 0.87 | 0.00 | 64 | 1004.0 |
| 20260506160048 | 65 | 30 | 0.0 | 4.0 | 0.00 | 0.87 | 0.00 | 64 | 1004.0 |
| 20260506154548 | 66 | 55 | 0.0 | 6.0 | 0.00 | 0.87 | 0.00 | 64 | 1004.2 |
| 20260506153047 | 66 | 40 | 0.0 | 3.0 | 0.00 | 0.87 | 0.00 | 63 | 1004.2 |
| 20260506152127 | 67 | 293 | 1.0 | 3.0 | 0.00 | 0.87 | 0.00 | 61 | 1005.2 |
| 20260506151545 | 67 | 269 | 0.0 | 3.0 | 0.00 | 0.87 | 0.00 | 61 | 1004.2 |
| 20260506150053 | 67 | 206 | 1.0 | 2.0 | 0.00 | 0.87 | 0.00 | 63 | 1004.4 |
| 20260506144559 | 67 | 205 | 1.0 | 3.0 | 0.00 | 0.87 | 0.00 | 60 | 1004.4 |
| 20260506143051 | 67 | 206 | 0.0 | 2.0 | 0.00 | 0.87 | 0.00 | 62 | 1004.5 |
| 20260506142445 | 68 | 203 | 2.0 | 3.0 | 0.00 | 0.87 | 0.00 | 59 | 1005.5 |
| 20260506141540 | 67 | 204 | 1.0 | 4.0 | 0.00 | 0.87 | 0.00 | 60 | 1004.4 |
| 20260506140055 | 69 | 187 | 0.0 | 3.0 | 0.00 | 0.87 | 0.00 | 63 | 1004.6 |
| 20260506134538 | 69 | 187 | 0.0 | 3.0 | 0.00 | 0.87 | 0.00 | 58 | 1004.7 |
| 20260506133034 | 69 | 188 | 1.0 | 5.0 | 0.00 | 0.87 | 0.00 | 60 | 1004.7 |
| 20260506132248 | 67 | 203 | 1.0 | 2.0 | 0.00 | 0.87 | 0.00 | 66 | 1005.9 |
| 20260506131538 | 67 | 205 | 1.0 | 6.0 | 0.00 | 0.87 | 0.00 | 66 | 1005.0 |
| 20260506130028 | 67 | 227 | 3.0 | 6.0 | 0.00 | 0.87 | 0.00 | 63 | 1005.2 |
| 20260506124525 | 66 | 254 | 1.0 | 3.0 | 0.00 | 0.87 | 0.00 | 67 | 1005.4 |
| 20260506123034 | 64 | 232 | 1.0 | 5.0 | 0.00 | 0.87 | 0.00 | 65 | 1005.6 |
| 20260506122015 | 65 | 225 | 1.0 | 3.0 | 0.00 | 0.87 | 0.00 | 67 | 1006.5 |
| 20260506121521 | 64 | 218 | 2.0 | 4.0 | 0.00 | 0.87 | 0.00 | 68 | 1005.6 |
| 20260506120028 | 64 | 149 | 1.0 | 4.0 | 0.00 | 0.87 | 0.00 | 67 | 1005.6 |
| 20260506114521 | 65 | 215 | 3.0 | 6.0 | 0.00 | 0.87 | 0.00 | 67 | 1005.8 |
| 20260506113017 | 64 | 207 | 1.0 | 5.0 | 0.00 | 0.87 | 0.00 | 68 | 1005.8 |
| 20260506112314 | 64 | 203 | 3.0 | 4.0 | 0.00 | 0.87 | 0.00 | 69 | 1006.9 |
| 20260506111514 | 64 | 193 | 3.0 | 6.0 | 0.00 | 0.87 | 0.00 | 69 | 1006.0 |
| 20260506110014 | 64 | 204 | 1.0 | 7.0 | 0.00 | 0.87 | 0.00 | 69 | 1006.1 |
| 20260506104522 | 63 | 143 | 1.0 | 5.0 | 0.00 | 0.87 | 0.00 | 68 | 1006.3 |
| 20260506103012 | 63 | 171 | 2.0 | 7.0 | 0.00 | 0.87 | 0.00 | 70 | 1006.2 |
| 20260506102305 | 63 | 225 | 2.0 | 3.0 | 0.00 | 0.87 | 0.00 | 72 | 1007.3 |
| 20260506101508 | 63 | 192 | 1.0 | 6.0 | 0.00 | 0.87 | 0.00 | 72 | 1006.5 |
| 20260506100015 | 62 | 214 | 0.0 | 7.0 | 0.00 | 0.87 | 0.00 | 72 | 1006.6 |
| 20260506094506 | 62 | 232 | 2.0 | 7.0 | 0.00 | 0.87 | 0.00 | 77 | 1006.7 |
| 20260506093001 | 61 | 231 | 2.0 | 5.0 | 0.00 | 0.87 | 0.00 | 77 | 1006.6 |
| 20260506092249 | 60 | 158 | 1.0 | 3.0 | 0.00 | 0.87 | 0.00 | 76 | 1007.3 |
| 20260506091557 | 60 | 207 | 0.0 | 4.0 | 0.00 | 0.87 | 0.00 | 77 | 1006.7 |